Bookmark and Share
Track history (hours):
 

Drifting buoy 41602

Last reported at 2014-Apr-20 05:30 UTC. Time now 2014-Apr-20 08:46 UTC.
Position N 27°01' W 045°02'.

Water temperature 22.5 ° C

NotesDate/timePositionNaut miles runAvg speedWind from/ knotsBaromVisibWave heightAir tempDewpointWater temp
2014-Apr-20 05:30N 27°01' W 045°02'0 0.2 22.5
2014-Apr-20 05:00N 27°01' W 045°02'1 0.3 22.5
2014-Apr-20 03:01N 27°01' W 045°01'1 0.2 22.5
2014-Apr-19 22:01N 27°01' W 045°00'2 0.5 22.6
2014-Apr-19 18:31N 27°00' W 044°58'0 0.6 22.6
2014-Apr-19 18:01N 27°00' W 044°58'0 0.5 22.6
2014-Apr-19 17:01N 27°01' W 044°58'1 0.5 22.6
2014-Apr-19 15:31N 27°01' W 044°57'0 0.3 22.6
2014-Apr-19 15:01N 27°01' W 044°57'0 0.3 22.6
2014-Apr-19 14:01N 27°01' W 044°56'0 0.2 22.5
2014-Apr-19 12:01N 27°01' W 044°56'0 0.1 22.4
2014-Apr-19 11:31N 27°01' W 044°56'0 0.2 22.5
2014-Apr-19 11:01N 27°01' W 044°56'0 0.1 22.4
2014-Apr-19 09:31N 27°01' W 044°55'0 0.0 22.5
2014-Apr-19 09:01N 27°01' W 044°55'1 0.2 22.4
2014-Apr-19 05:31N 27°01' W 044°55'0 0.0 22.4
2014-Apr-19 05:01N 27°01' W 044°55'0 0.2 22.4
2014-Apr-19 03:01N 27°02' W 044°55'0 0.1 22.5
2014-Apr-19 00:31N 27°02' W 044°55'0 0.1 22.5
2014-Apr-19 00:01N 27°02' W 044°55'0 0.2 22.5
2014-Apr-18 23:31N 27°02' W 044°54'0 0.1 22.5
2014-Apr-18 23:01N 27°02' W 044°54'0 0.2 22.5
2014-Apr-18 22:31N 27°02' W 044°54'2 0.3 22.5
2014-Apr-18 15:31N 27°03' W 044°53'0 0.2 22.5
2014-Apr-18 15:01N 27°03' W 044°52'0 0.1 22.5
2014-Apr-18 12:30N 27°03' W 044°52'0 0.2 22.5
2014-Apr-18 11:30N 27°03' W 044°52'0 0.1 22.4
2014-Apr-18 11:01N 27°03' W 044°52'0 0.2 22.4
2014-Apr-18 09:01N 27°03' W 044°52'1 0.3 22.4
2014-Apr-18 06:31N 27°04' W 044°51'0 0.2 22.4
2014-Apr-18 06:01N 27°04' W 044°51'0 0.3 22.4
2014-Apr-18 05:31N 27°04' W 044°51'1 0.1 22.4
2014-Apr-17 22:30N 27°05' W 044°52'0 0.2 22.5
2014-Apr-17 22:00N 27°05' W 044°51'1 0.3 22.5
2014-Apr-17 20:00N 27°05' W 044°51'1 0.3 22.5
2014-Apr-17 16:30N 27°06' W 044°50'0 0.2 22.5
2014-Apr-17 16:00N 27°06' W 044°50'1 0.3 22.5
2014-Apr-17 13:31N 27°07' W 044°50'0 0.3 22.5
2014-Apr-17 13:01N 27°07' W 044°50'2 0.2 22.5
2014-Apr-17 05:01N 27°08' W 044°48'0 0.0 22.4
2014-Apr-17 01:01N 27°08' W 044°48'0 0.2 22.4
2014-Apr-17 00:31N 27°08' W 044°48'0 0.2 22.4
2014-Apr-16 23:01N 27°08' W 044°48'1 0.3 22.4
2014-Apr-16 19:31N 27°08' W 044°47'0 0.2 22.3
2014-Apr-16 19:01N 27°08' W 044°47'0 0.3 22.3
2014-Apr-16 17:31N 27°08' W 044°46'0 0.3 22.2
2014-Apr-16 17:01N 27°09' W 044°46'2 0.3 22.2
2014-Apr-16 11:31N 27°10' W 044°45'0 0.3 22.0
2014-Apr-16 11:01N 27°10' W 044°45'0 0.4 22.0
2014-Apr-16 10:31N 27°10' W 044°45'0 0.4 22.0
2014-Apr-16 10:01N 27°11' W 044°45'0 0.3 22.1
2014-Apr-16 09:01N 27°11' W 044°45'1 0.2 22.1
2014-Apr-16 06:01N 27°11' W 044°45'0 0.2 22.1
2014-Apr-16 04:31N 27°12' W 044°45'0 0.2 22.1
2014-Apr-16 04:01N 27°12' W 044°45'0 0.2 22.1
2014-Apr-16 03:01N 27°12' W 044°45'0 0.2 22.1
2014-Apr-16 02:31N 27°12' W 044°45'0 0.1 22.1
2014-Apr-16 00:01N 27°12' W 044°45'0 0.1 22.2
2014-Apr-15 23:31N 27°12' W 044°45'0 0.2 22.2
2014-Apr-15 23:01N 27°12' W 044°45'0 0.2 22.2
2014-Apr-15 22:01N 27°12' W 044°45'0 0.2 22.2
2014-Apr-15 21:31N 27°12' W 044°45'0 0.3 22.2
2014-Apr-15 21:01N 27°12' W 044°44'1 0.3 22.2
2014-Apr-15 19:01N 27°12' W 044°44'1 0.3 22.1
2014-Apr-15 17:31N 27°13' W 044°44'0 0.4 22.0
2014-Apr-15 17:01N 27°13' W 044°43'2 0.4 22.0
2014-Apr-15 13:01N 27°14' W 044°43'0 0.3 21.9
2014-Apr-15 12:01N 27°15' W 044°43'0 0.3 21.8
2014-Apr-15 11:01N 27°15' W 044°43'1 0.5 21.8
2014-Apr-15 09:00N 27°16' W 044°42'0 0.3 21.8
2014-Apr-15 08:30N 27°16' W 044°42'0 0.3 21.8
2014-Apr-15 08:00N 27°16' W 044°42'0 0.5 21.8
2014-Apr-15 07:30N 27°16' W 044°42'0 0.4 21.8
2014-Apr-15 07:01N 27°17' W 044°42'0 0.5 21.8
2014-Apr-15 06:31N 27°17' W 044°42'0 0.3 21.8
2014-Apr-15 05:00N 27°17' W 044°42'1 0.2 21.8
2014-Apr-15 01:31N 27°18' W 044°42'0 0.2 22.0
2014-Apr-15 01:01N 27°18' W 044°42'0 0.2 22.0
2014-Apr-14 23:30N 27°18' W 044°42'0 0.3 22.1
2014-Apr-14 22:01N 27°18' W 044°41'0 0.4 22.1
2014-Apr-14 21:31N 27°18' W 044°41'1 0.5 22.1
2014-Apr-14 19:01N 27°18' W 044°39'0 0.6 22.1
2014-Apr-14 18:31N 27°18' W 044°39'0 0.7 22.2
2014-Apr-14 18:01N 27°18' W 044°39'3 0.7 22.2
2014-Apr-14 13:01N 27°21' W 044°37'0 0.5 22.1
2014-Apr-14 12:31N 27°22' W 044°37'1 0.4 22.1
2014-Apr-14 09:01N 27°23' W 044°36'1 0.3 22.0
2014-Apr-14 07:01N 27°24' W 044°37'1 0.3 22.0
2014-Apr-14 05:00N 27°24' W 044°37'0 0.4 22.1
2014-Apr-14 04:30N 27°24' W 044°37'0 0.2 22.1
2014-Apr-14 02:31N 27°25' W 044°37'0 0.2 22.2
2014-Apr-14 02:01N 27°25' W 044°37'1 0.2 22.2
2014-Apr-13 23:01N 27°24' W 044°36'0 0.5 22.3
2014-Apr-13 22:30N 27°24' W 044°36'0 0.5 22.3
2014-Apr-13 22:00N 27°24' W 044°36'5 0.7 22.3
2014-Apr-13 15:01N 27°26' W 044°31'2 0.6 22.3
2014-Apr-13 12:01N 27°28' W 044°30'0 0.2 22.2
2014-Apr-13 11:31N 27°28' W 044°30'0 0.3 22.2
2014-Apr-13 11:01N 27°28' W 044°30'1 0.3 22.2
2014-Apr-13 08:01N 27°28' W 044°29'0 0.3 22.2
2014-Apr-13 07:31N 27°29' W 044°29'0 0.3 22.2
2014-Apr-13 07:01N 27°29' W 044°29'2 0.2 22.2
2014-Apr-12 22:31N 27°30' W 044°28'0 0.3 22.4
2014-Apr-12 22:01N 27°30' W 044°28'0 0.3 22.4
2014-Apr-12 21:31N 27°30' W 044°27'0 0.6 22.4
2014-Apr-12 21:01N 27°30' W 044°27'3 0.7 22.5
2014-Apr-12 17:01N 27°30' W 044°24'2 0.7 22.6
2014-Apr-12 14:01N 27°32' W 044°23'1 0.5 22.3
2014-Apr-12 12:01N 27°33' W 044°22'1 0.4 22.1
2014-Apr-12 08:31N 27°34' W 044°21'0 0.4 22.0
2014-Apr-12 08:01N 27°34' W 044°21'1 0.3 22.0
2014-Apr-12 05:00N 27°35' W 044°21'2 0.4 22.0
2014-Apr-11 23:01N 27°36' W 044°19'2 0.5 22.1
2014-Apr-11 20:01N 27°36' W 044°17'1 0.7 22.2
2014-Apr-11 18:30N 27°37' W 044°16'0 0.8 22.2
2014-Apr-11 18:00N 27°37' W 044°15'1 0.8 22.2
2014-Apr-11 17:01N 27°37' W 044°14'2 0.9 22.2
2014-Apr-11 14:31N 27°38' W 044°12'0 0.9 22.1
2014-Apr-11 14:01N 27°38' W 044°12'4 0.5 22.1
2014-Apr-11 07:00N 27°40' W 044°08'0 0.3 21.9
2014-Apr-11 06:30N 27°40' W 044°08'0 0.3 21.9
2014-Apr-11 06:01N 27°40' W 044°08'1 0.5 21.9
2014-Apr-11 03:00N 27°41' W 044°06'1 0.4 21.9
2014-Apr-11 01:01N 27°41' W 044°06'1 0.5 22.0
2014-Apr-10 23:01N 27°41' W 044°04'4 0.6 22.1
2014-Apr-10 17:00N 27°41' W 044°00'1 0.8 22.3
2014-Apr-10 15:31N 27°41' W 043°59'0 0.7 22.3
2014-Apr-10 15:01N 27°42' W 043°59'1 0.7 22.3
2014-Apr-10 13:01N 27°42' W 043°57'1 0.5 22.4
2014-Apr-10 11:31N 27°42' W 043°56'0 0.5 22.4
2014-Apr-10 11:01N 27°43' W 043°56'1 0.4 22.4
2014-Apr-10 09:01N 27°43' W 043°55'0 0.3 22.4
2014-Apr-10 07:30N 27°43' W 043°55'0 0.2 22.4
2014-Apr-10 07:00N 27°43' W 043°55'   22.4

Dump ship's entire track history

sailing weather and tide predictions

Buoy 41602